createdAt,value
2022-12-18T00:02:35.223Z,99765.47
2022-12-18T00:07:57.131Z,99776.53
2022-12-18T00:13:18.908Z,99765.59
2022-12-18T00:18:41.831Z,99762.78
2022-12-18T00:24:03.928Z,99768.25
2022-12-18T00:29:25.683Z,99759.69
2022-12-18T00:34:47.411Z,99768.63
2022-12-18T00:40:10.052Z,99778.97
2022-12-18T00:45:32.413Z,99777.78
2022-12-18T00:50:54.269Z,99771.09
2022-12-18T00:56:16.040Z,99781.19
2022-12-18T01:01:37.938Z,99775.19
2022-12-18T01:06:59.795Z,99776.50
2022-12-18T01:12:21.604Z,99767.75
2022-12-18T01:17:44.197Z,99777.22
2022-12-18T01:23:05.962Z,99777.13
2022-12-18T01:28:27.669Z,99785.00
2022-12-18T01:33:50.624Z,99781.19
2022-12-18T01:39:14.428Z,99777.38
2022-12-18T01:44:56.741Z,99788.75
2022-12-18T01:50:25.966Z,99779.59
2022-12-18T01:55:51.231Z,99786.22
2022-12-18T02:01:13.210Z,99789.34
2022-12-18T02:06:42.099Z,99775.84
2022-12-18T02:12:17.397Z,99776.25
2022-12-18T02:17:51.021Z,99779.97
2022-12-18T02:23:31.024Z,99780.56
2022-12-18T02:29:01.702Z,99780.78
2022-12-18T02:34:29.091Z,99794.88
2022-12-18T02:39:54.047Z,99794.44
2022-12-18T02:45:15.919Z,99797.00
2022-12-18T02:50:46.445Z,99796.56
2022-12-18T02:56:19.727Z,99805.16
2022-12-18T03:01:50.695Z,99809.81
2022-12-18T03:07:21.873Z,99793.06
2022-12-18T03:12:48.730Z,99798.38
2022-12-18T03:18:17.811Z,99809.25
2022-12-18T03:23:48.349Z,99816.84
2022-12-18T03:29:17.566Z,99812.59
2022-12-18T03:34:43.104Z,99824.44
2022-12-18T03:40:06.186Z,99831.34
2022-12-18T03:45:35.516Z,99819.59
2022-12-18T03:51:00.566Z,99816.84
2022-12-18T03:56:24.836Z,99821.94
2022-12-18T04:01:50.105Z,99822.19
2022-12-18T04:07:13.607Z,99820.84
2022-12-18T04:12:35.359Z,99814.66
2022-12-18T04:17:57.115Z,99812.03
2022-12-18T04:23:19.206Z,99818.91
2022-12-18T04:28:40.941Z,99813.06
2022-12-18T04:34:03.040Z,99835.38
2022-12-18T04:39:25.450Z,99842.94
2022-12-18T04:44:47.806Z,99840.75
2022-12-18T04:50:09.581Z,99825.16
2022-12-18T04:55:31.322Z,99811.66
2022-12-18T05:00:53.018Z,99799.66
2022-12-18T05:06:15.225Z,99814.66
2022-12-18T05:11:37.041Z,99815.91
2022-12-18T05:17:01.078Z,99816.94
2022-12-18T05:22:23.064Z,99817.28
2022-12-18T05:27:45.839Z,99839.78
2022-12-18T05:33:07.567Z,99847.84
2022-12-18T05:38:30.648Z,99842.69
2022-12-18T05:43:52.374Z,99855.91
2022-12-18T05:49:14.069Z,99848.13
2022-12-18T05:54:35.922Z,99843.84
2022-12-18T05:59:57.607Z,99834.94
2022-12-18T06:05:19.483Z,99832.59
2022-12-18T06:10:42.631Z,99836.06
2022-12-18T06:16:08.136Z,99851.94
2022-12-18T06:21:30.910Z,99853.84
2022-12-18T06:26:53.669Z,99844.44
2022-12-18T06:32:15.377Z,99855.88
2022-12-18T06:37:37.063Z,99863.47
2022-12-18T06:42:58.810Z,99876.34
2022-12-18T06:48:20.874Z,99878.66
2022-12-18T06:53:42.981Z,99863.94
2022-12-18T06:59:05.016Z,99865.56
2022-12-18T07:04:31.271Z,99870.84
2022-12-18T07:09:52.963Z,99880.19
2022-12-18T07:15:14.777Z,99901.16
2022-12-18T07:20:37.107Z,99890.44
2022-12-18T07:26:11.469Z,99907.09
2022-12-18T07:31:34.466Z,99904.44
2022-12-18T07:36:56.271Z,99903.88
2022-12-18T07:42:32.851Z,99909.50
2022-12-18T07:47:54.551Z,99912.88
2022-12-18T07:53:16.258Z,99910.06
2022-12-18T07:58:38.672Z,99917.72
2022-12-18T08:04:00.399Z,99917.56
2022-12-18T08:09:22.126Z,99917.81
2022-12-18T08:14:43.840Z,99918.19
2022-12-18T08:20:05.890Z,99911.75
2022-12-18T08:25:28.770Z,99916.94
2022-12-18T08:30:53.365Z,99906.09
2022-12-18T08:36:15.087Z,99913.59
2022-12-18T08:41:36.776Z,99908.38
2022-12-18T08:46:58.556Z,99913.53
2022-12-18T08:52:20.284Z,99916.34
2022-12-18T08:57:42.003Z,99909.00
2022-12-18T09:03:03.898Z,99899.72
2022-12-18T09:08:25.925Z,99891.03
2022-12-18T09:13:47.847Z,99885.59
2022-12-18T09:19:10.690Z,99890.69
2022-12-18T09:24:32.413Z,99893.81
2022-12-18T09:29:54.107Z,99880.19
2022-12-18T09:35:15.910Z,99876.91
2022-12-18T09:40:43.749Z,99876.41
2022-12-18T09:46:12.994Z,99877.66
2022-12-18T09:51:45.563Z,99864.94
2022-12-18T09:57:07.290Z,99845.72
2022-12-18T10:02:32.038Z,99860.16
2022-12-18T10:08:06.675Z,99856.91
2022-12-18T10:13:47.710Z,99863.91
2022-12-18T10:19:25.647Z,99867.63
2022-12-18T10:25:05.616Z,99872.47
2022-12-18T10:30:28.695Z,99867.25
2022-12-18T10:35:53.731Z,99854.25
2022-12-18T10:41:18.224Z,99870.53
2022-12-18T10:46:40.123Z,99867.84
2022-12-18T10:52:22.342Z,99861.28
2022-12-18T10:57:44.311Z,99867.25
2022-12-18T11:03:37.073Z,99865.66
2022-12-18T11:09:19.683Z,99866.09
2022-12-18T11:14:48.872Z,99856.06
2022-12-18T11:20:33.807Z,99844.09
2022-12-18T11:26:02.606Z,99822.28
2022-12-18T11:31:28.731Z,99816.56
2022-12-18T11:36:50.904Z,99821.00
2022-12-18T11:42:45.594Z,99823.84
2022-12-18T11:48:23.672Z,99818.78
2022-12-18T11:53:45.389Z,99809.59
2022-12-18T11:59:17.553Z,99806.25
2022-12-18T12:05:05.164Z,99786.03
2022-12-18T12:10:52.524Z,99780.06
2022-12-18T12:16:22.567Z,99776.69
2022-12-18T12:21:54.574Z,99780.34
2022-12-18T12:27:31.863Z,99778.66
2022-12-18T12:33:25.966Z,99773.59
2022-12-18T12:38:52.858Z,99771.91
2022-12-18T12:44:21.357Z,99777.03
2022-12-18T12:49:48.403Z,99771.13
2022-12-18T12:55:22.389Z,99777.13
2022-12-18T13:00:54.320Z,99788.41
2022-12-18T13:06:33.905Z,99783.31
2022-12-18T13:12:22.510Z,99785.97
2022-12-18T13:17:44.308Z,99788.56
2022-12-18T13:23:24.320Z,99781.78
2022-12-18T13:28:49.169Z,99778.34
2022-12-18T13:40:00.083Z,99766.31
2022-12-18T13:45:41.025Z,99757.03
2022-12-18T13:51:17.595Z,99757.03
2022-12-18T13:56:44.903Z,99761.38
2022-12-18T14:02:15.434Z,99763.91
2022-12-18T14:07:43.872Z,99762.16
2022-12-18T14:13:14.962Z,99765.63
2022-12-18T14:19:08.664Z,99766.41
2022-12-18T14:24:37.167Z,99759.63
2022-12-18T14:29:59.152Z,99767.34
2022-12-18T14:35:21.002Z,99772.44
2022-12-18T14:40:43.887Z,99769.88
2022-12-18T14:46:20.543Z,99774.13
2022-12-18T14:51:49.543Z,99778.31
2022-12-18T14:57:25.853Z,99782.50
2022-12-18T15:02:56.711Z,99774.81
2022-12-18T15:08:41.037Z,99773.75
2022-12-18T15:14:30.904Z,99773.81
2022-12-18T15:20:01.316Z,99768.63
2022-12-18T15:25:34.704Z,99767.78
2022-12-18T15:31:25.752Z,99756.56
2022-12-18T15:36:47.859Z,99763.50
2022-12-18T15:42:29.834Z,99771.91
2022-12-18T15:47:51.602Z,99765.84
2022-12-18T15:53:13.375Z,99760.63
2022-12-18T15:58:35.186Z,99767.31
2022-12-18T16:03:57.464Z,99765.63
2022-12-18T16:09:24.488Z,99767.50
2022-12-18T16:14:48.340Z,99765.13
2022-12-18T16:20:15.890Z,99760.69
2022-12-18T16:25:37.815Z,99757.34
2022-12-18T16:31:00.169Z,99766.63
2022-12-18T16:36:21.875Z,99756.41
2022-12-18T16:41:44.029Z,99763.28
2022-12-18T16:47:05.883Z,99753.88
2022-12-18T16:52:30.313Z,99755.56
2022-12-18T16:57:52.012Z,99752.16
2022-12-18T17:03:14.030Z,99749.50
2022-12-18T17:08:36.013Z,99742.63
2022-12-18T17:13:58.160Z,99733.31
2022-12-18T17:19:21.722Z,99728.88
2022-12-18T17:24:43.521Z,99723.81
2022-12-18T17:30:05.880Z,99728.00
2022-12-18T17:35:27.629Z,99722.22
2022-12-18T17:40:49.347Z,99728.19
2022-12-18T17:46:14.953Z,99728.25
2022-12-18T17:51:36.780Z,99733.28
2022-12-18T17:56:58.474Z,99729.91
2022-12-18T18:02:20.373Z,99728.47
2022-12-18T18:07:43.078Z,99719.03
2022-12-18T18:13:24.563Z,99725.91
2022-12-18T18:18:46.245Z,99714.88
2022-12-18T18:24:09.433Z,99708.88
2022-12-18T18:29:31.243Z,99719.06
2022-12-18T18:34:53.034Z,99705.41
2022-12-18T18:40:15.115Z,99702.94
2022-12-18T18:45:36.934Z,99693.53
2022-12-18T18:50:59.386Z,99696.97
2022-12-18T19:02:05.335Z,99693.47
2022-12-18T19:07:30.251Z,99690.13
2022-12-18T19:13:11.369Z,99695.22
2022-12-18T19:18:33.890Z,99685.03
2022-12-18T19:23:55.684Z,99675.66
2022-12-18T19:29:17.865Z,99663.69
2022-12-18T19:34:39.698Z,99667.97
2022-12-18T19:40:02.491Z,99654.31
2022-12-18T19:45:30.918Z,99656.78
2022-12-18T19:50:52.801Z,99655.16
2022-12-18T19:56:17.870Z,99648.34
2022-12-18T20:01:40.426Z,99638.88
2022-12-18T20:07:02.470Z,99632.94
2022-12-18T20:12:24.394Z,99631.25
2022-12-18T20:17:46.235Z,99622.75
2022-12-18T20:23:08.280Z,99624.50
2022-12-18T20:28:30.346Z,99603.97
2022-12-18T20:33:54.510Z,99585.13
2022-12-18T20:39:19.428Z,99577.38
2022-12-18T20:44:42.025Z,99583.28
2022-12-18T20:50:04.154Z,99604.69
2022-12-18T20:55:26.069Z,99606.31
2022-12-18T21:00:47.820Z,99610.59
2022-12-18T21:06:10.601Z,99584.09
2022-12-18T21:11:51.906Z,99593.59
2022-12-18T21:17:14.123Z,99608.06
2022-12-18T21:22:36.580Z,99615.63
2022-12-18T21:27:58.307Z,99578.13
2022-12-18T21:33:20.047Z,99605.50
2022-12-18T21:38:42.100Z,99607.22
2022-12-18T21:44:07.037Z,99605.50
2022-12-18T21:49:29.012Z,99603.81
2022-12-18T21:54:50.729Z,99588.50
2022-12-18T22:00:19.344Z,99587.56
2022-12-18T22:05:41.460Z,99589.31
2022-12-18T22:11:03.382Z,99580.72
2022-12-18T22:16:25.200Z,99567.88
2022-12-18T22:21:48.716Z,99573.03
2022-12-18T22:27:10.507Z,99570.50
2022-12-18T22:32:34.895Z,99568.78
2022-12-18T22:37:59.110Z,99573.91
2022-12-18T22:43:20.859Z,99567.94
2022-12-18T22:48:43.233Z,99560.22
2022-12-18T22:54:04.995Z,99556.84
2022-12-18T22:59:26.873Z,99574.81
2022-12-18T23:04:48.612Z,99580.81
2022-12-18T23:10:10.401Z,99582.50
2022-12-18T23:15:32.456Z,99589.38
2022-12-18T23:20:54.125Z,99579.09
2022-12-18T23:26:18.928Z,99572.25
2022-12-18T23:31:40.794Z,99570.56
2022-12-18T23:37:03.653Z,99574.00
2022-12-18T23:42:25.548Z,99576.56
2022-12-18T23:47:51.050Z,99559.47
2022-12-18T23:53:13.589Z,99550.06
2022-12-18T23:58:36.233Z,99559.47
